createdAt,value
2022-10-18T00:00:07.258Z,100603.94
2022-10-18T00:02:37.889Z,100599.41
2022-10-18T00:05:05.709Z,100592.34
2022-10-18T00:07:33.053Z,100597.75
2022-10-18T00:10:00.285Z,100606.69
2022-10-18T00:12:27.965Z,100598.69
2022-10-18T00:14:55.172Z,100596.22
2022-10-18T00:17:22.221Z,100615.53
2022-10-18T00:19:50.581Z,100609.38
2022-10-18T00:22:17.691Z,100627.00
2022-10-18T00:24:44.733Z,100616.53
2022-10-18T00:27:12.104Z,100625.34
2022-10-18T00:29:39.242Z,100628.06
2022-10-18T00:32:06.645Z,100629.03
2022-10-18T00:34:33.790Z,100623.94
2022-10-18T00:37:00.972Z,100625.81
2022-10-18T00:39:27.865Z,100625.94
2022-10-18T00:41:54.866Z,100619.88
2022-10-18T00:44:24.773Z,100625.31
2022-10-18T00:46:53.225Z,100620.06
2022-10-18T00:49:35.586Z,100614.06
2022-10-18T00:52:09.145Z,100614.19
2022-10-18T00:54:38.445Z,100614.38
2022-10-18T00:57:06.228Z,100616.28
2022-10-18T00:59:33.843Z,100605.91
2022-10-18T01:02:01.440Z,100607.72
2022-10-18T01:04:29.018Z,100606.13
2022-10-18T01:07:05.725Z,100603.72
2022-10-18T01:09:42.124Z,100610.78
2022-10-18T01:12:24.386Z,100608.28
2022-10-18T01:15:10.029Z,100612.78
2022-10-18T01:18:01.625Z,100597.09
2022-10-18T01:20:53.853Z,100608.53
2022-10-18T01:23:57.966Z,100609.44
2022-10-18T01:27:06.788Z,100613.75
2022-10-18T01:30:04.768Z,100618.16
2022-10-18T01:32:36.705Z,100626.88
2022-10-18T01:35:04.856Z,100635.50
2022-10-18T01:37:33.341Z,100618.09
2022-10-18T01:40:03.925Z,100626.06
2022-10-18T01:42:31.164Z,100623.59
2022-10-18T01:44:59.305Z,100614.91
2022-10-18T01:47:27.400Z,100607.19
2022-10-18T01:50:00.100Z,100607.47
2022-10-18T01:52:27.105Z,100621.66
2022-10-18T01:54:55.471Z,100612.16
2022-10-18T01:57:33.265Z,100606.19
2022-10-18T02:00:12.310Z,100594.94
2022-10-18T02:02:57.513Z,100601.06
2022-10-18T02:05:40.415Z,100595.97
2022-10-18T02:08:22.719Z,100595.09
2022-10-18T02:10:56.140Z,100588.19
2022-10-18T02:13:26.123Z,100598.75
2022-10-18T02:15:57.926Z,100602.41
2022-10-18T02:18:26.503Z,100599.59
2022-10-18T02:20:53.968Z,100598.00
2022-10-18T02:23:23.926Z,100612.88
2022-10-18T02:25:51.285Z,100611.25
2022-10-18T02:28:18.296Z,100613.13
2022-10-18T02:31:04.265Z,100620.22
2022-10-18T02:33:40.384Z,100634.19
2022-10-18T02:36:32.753Z,100627.19
2022-10-18T02:39:06.953Z,100627.22
2022-10-18T02:41:34.165Z,100636.06
2022-10-18T02:44:01.074Z,100641.38
2022-10-18T02:46:28.179Z,100638.81
2022-10-18T02:48:55.225Z,100638.88
2022-10-18T02:51:22.085Z,100640.63
2022-10-18T02:53:49.345Z,100635.47
2022-10-18T02:56:16.789Z,100633.75
2022-10-18T02:58:43.866Z,100644.38
2022-10-18T03:01:10.784Z,100647.94
2022-10-18T03:03:38.228Z,100644.47
2022-10-18T03:06:05.266Z,100644.59
2022-10-18T03:08:32.212Z,100637.63
2022-10-18T03:10:59.307Z,100628.91
2022-10-18T03:13:26.326Z,100640.31
2022-10-18T03:15:53.434Z,100643.84
2022-10-18T03:18:20.522Z,100638.63
2022-10-18T03:20:47.632Z,100635.09
2022-10-18T03:23:14.662Z,100636.03
2022-10-18T03:25:44.222Z,100634.28
2022-10-18T03:28:13.404Z,100627.31
2022-10-18T03:30:40.325Z,100651.09
2022-10-18T03:33:07.596Z,100658.16
2022-10-18T03:35:34.547Z,100648.59
2022-10-18T03:38:01.628Z,100644.25
2022-10-18T03:40:28.584Z,100657.41
2022-10-18T03:42:55.606Z,100657.41
2022-10-18T03:45:25.254Z,100662.66
2022-10-18T03:47:53.328Z,100666.16
2022-10-18T03:50:20.807Z,100657.44
2022-10-18T03:52:47.976Z,100672.31
2022-10-18T03:55:14.986Z,100662.69
2022-10-18T03:57:42.202Z,100665.31
2022-10-18T04:00:10.093Z,100669.75
2022-10-18T04:02:41.498Z,100670.66
2022-10-18T04:05:09.122Z,100667.13
2022-10-18T04:10:04.524Z,100672.44
2022-10-18T04:12:31.883Z,100671.50
2022-10-18T04:14:59.263Z,100664.50
2022-10-18T04:17:26.143Z,100658.41
2022-10-18T04:19:53.283Z,100662.78
2022-10-18T04:22:20.230Z,100661.00
2022-10-18T04:24:47.411Z,100669.81
2022-10-18T04:27:14.345Z,100678.59
2022-10-18T04:29:41.349Z,100682.94
2022-10-18T04:32:08.271Z,100676.84
2022-10-18T04:34:35.673Z,100692.66
2022-10-18T04:37:02.651Z,100698.84
2022-10-18T04:39:29.829Z,100693.56
2022-10-18T04:41:56.846Z,100702.31
2022-10-18T04:44:23.888Z,100699.72
2022-10-18T04:46:50.810Z,100697.13
2022-10-18T04:49:17.886Z,100687.50
2022-10-18T04:51:44.947Z,100683.16
2022-10-18T04:54:11.910Z,100680.56
2022-10-18T04:56:38.940Z,100676.16
2022-10-18T04:59:05.969Z,100684.94
2022-10-18T05:01:33.041Z,100674.50
2022-10-18T05:03:59.986Z,100685.94
2022-10-18T05:06:26.928Z,100707.84
2022-10-18T05:08:53.952Z,100708.69
2022-10-18T05:11:21.018Z,100711.38
2022-10-18T05:13:50.171Z,100729.72
2022-10-18T05:16:18.325Z,100720.94
2022-10-18T05:18:45.256Z,100718.31
2022-10-18T05:21:12.587Z,100713.91
2022-10-18T05:23:39.568Z,100710.47
2022-10-18T05:26:07.466Z,100700.78
2022-10-18T05:28:40.126Z,100707.75
2022-10-18T05:31:09.452Z,100704.25
2022-10-18T05:33:36.584Z,100706.84
2022-10-18T05:36:04.192Z,100706.88
2022-10-18T05:38:31.591Z,100711.25
2022-10-18T05:40:59.711Z,100706.00
2022-10-18T05:43:29.793Z,100708.63
2022-10-18T05:45:56.728Z,100714.75
2022-10-18T05:48:24.006Z,100720.91
2022-10-18T05:50:51.168Z,100729.66
2022-10-18T05:53:35.594Z,100737.53
2022-10-18T05:56:04.502Z,100736.69
2022-10-18T05:58:31.494Z,100715.59
2022-10-18T06:01:00.354Z,100717.41
2022-10-18T06:03:31.093Z,100705.09
2022-10-18T06:06:07.777Z,100705.13
2022-10-18T06:08:35.887Z,100707.72
2022-10-18T06:11:23.071Z,100712.13
2022-10-18T06:13:51.316Z,100716.53
2022-10-18T06:16:22.595Z,100729.66
2022-10-18T06:18:51.422Z,100720.91
2022-10-18T06:21:19.174Z,100719.13
2022-10-18T06:23:52.864Z,100719.09
2022-10-18T06:26:20.461Z,100729.50
2022-10-18T06:28:47.663Z,100724.22
2022-10-18T06:31:15.348Z,100728.53
2022-10-18T06:33:42.669Z,100742.50
2022-10-18T06:36:28.063Z,100752.06
2022-10-18T06:38:56.703Z,100750.31
2022-10-18T06:41:24.144Z,100751.25
2022-10-18T06:43:53.310Z,100748.66
2022-10-18T06:46:20.453Z,100747.78
2022-10-18T06:48:48.257Z,100755.66
2022-10-18T06:51:15.582Z,100761.00
2022-10-18T06:53:44.581Z,100764.56
2022-10-18T06:56:20.483Z,100765.41
2022-10-18T06:58:47.581Z,100759.34
2022-10-18T07:01:16.916Z,100749.69
2022-10-18T07:03:44.982Z,100750.56
2022-10-18T07:06:13.761Z,100749.66
2022-10-18T07:08:41.287Z,100751.38
2022-10-18T07:11:09.343Z,100764.44
2022-10-18T07:13:36.384Z,100757.41
2022-10-18T07:16:05.905Z,100760.84
2022-10-18T07:18:37.485Z,100757.31
2022-10-18T07:21:06.822Z,100760.75
2022-10-18T07:23:35.005Z,100762.47
2022-10-18T07:26:02.584Z,100769.47
2022-10-18T07:28:30.073Z,100766.84
2022-10-18T07:30:57.182Z,100768.56
2022-10-18T07:33:26.026Z,100772.03
2022-10-18T07:35:53.124Z,100762.34
2022-10-18T07:38:20.304Z,100770.16
2022-10-18T07:40:47.364Z,100775.47
2022-10-18T07:43:14.443Z,100776.41
2022-10-18T07:45:41.504Z,100774.66
2022-10-18T07:48:08.463Z,100779.06
2022-10-18T07:50:36.743Z,100779.94
2022-10-18T07:53:03.723Z,100781.63
2022-10-18T07:55:30.746Z,100779.91
2022-10-18T07:58:00.503Z,100786.09
2022-10-18T08:00:27.503Z,100785.25
2022-10-18T08:02:58.185Z,100786.22
2022-10-18T08:05:26.989Z,100781.00
2022-10-18T08:07:54.362Z,100788.91
2022-10-18T08:10:22.511Z,100774.03
2022-10-18T08:12:49.824Z,100772.22
2022-10-18T08:15:17.244Z,100763.44
2022-10-18T08:17:44.464Z,100765.09
2022-10-18T08:20:19.288Z,100766.81
2022-10-18T08:23:00.141Z,100771.06
2022-10-18T08:25:28.890Z,100764.06
2022-10-18T08:27:55.904Z,100769.31
2022-10-18T08:30:23.678Z,100768.38
2022-10-18T08:32:50.747Z,100761.25
2022-10-18T08:35:17.851Z,100770.78
2022-10-18T08:37:45.529Z,100767.09
2022-10-18T08:40:16.142Z,100763.47
2022-10-18T08:43:19.341Z,100753.75
2022-10-18T08:45:49.975Z,100748.44
2022-10-18T08:48:25.391Z,100745.00
2022-10-18T08:50:54.844Z,100751.03
2022-10-18T08:53:30.586Z,100758.72
2022-10-18T08:56:11.411Z,100751.56
2022-10-18T08:58:38.603Z,100747.88
2022-10-18T09:01:28.102Z,100745.09
2022-10-18T09:04:16.056Z,100741.53
2022-10-18T09:06:50.541Z,100747.72
2022-10-18T09:09:41.702Z,100753.00
2022-10-18T09:12:30.830Z,100753.91
2022-10-18T09:15:05.102Z,100750.38
2022-10-18T09:17:35.222Z,100755.56
2022-10-18T09:20:24.142Z,100752.88
2022-10-18T09:23:03.224Z,100751.13
2022-10-18T09:25:44.362Z,100748.44
2022-10-18T09:28:16.303Z,100728.00
2022-10-18T09:30:54.785Z,100751.41
2022-10-18T09:33:36.062Z,100749.63
2022-10-18T09:36:25.035Z,100736.41
2022-10-18T09:38:57.175Z,100739.78
2022-10-18T09:41:30.701Z,100735.28
2022-10-18T09:44:02.805Z,100736.25
2022-10-18T09:46:38.666Z,100737.06
2022-10-18T09:49:23.846Z,100728.31
2022-10-18T09:51:52.005Z,100730.94
2022-10-18T09:54:42.542Z,100727.41
2022-10-18T09:57:22.503Z,100727.22
2022-10-18T09:59:50.902Z,100718.53
2022-10-18T10:02:22.127Z,100731.84
2022-10-18T10:04:50.566Z,100739.03
2022-10-18T10:07:24.965Z,100739.97
2022-10-18T10:10:04.922Z,100733.94
2022-10-18T10:12:37.291Z,100716.53
2022-10-18T10:15:31.390Z,100715.06
2022-10-18T10:18:05.066Z,100722.25
2022-10-18T10:20:42.963Z,100729.31
2022-10-18T10:23:28.583Z,100730.09
2022-10-18T10:26:01.024Z,100728.31
2022-10-18T10:28:30.954Z,100733.47
2022-10-18T10:31:29.590Z,100735.25
2022-10-18T10:34:05.525Z,100749.31
2022-10-18T10:36:34.268Z,100739.59
2022-10-18T10:39:19.512Z,100735.19
2022-10-18T10:41:56.983Z,100737.94
2022-10-18T10:44:26.565Z,100727.41
2022-10-18T10:46:55.085Z,100727.44
2022-10-18T10:49:40.954Z,100732.81
2022-10-18T10:52:26.921Z,100721.28
2022-10-18T10:55:05.756Z,100717.69
2022-10-18T10:57:38.815Z,100724.81
2022-10-18T11:00:06.426Z,100719.56
2022-10-18T11:02:35.539Z,100721.34
2022-10-18T11:05:25.737Z,100729.22
2022-10-18T11:07:55.624Z,100718.66
2022-10-18T11:10:30.827Z,100710.69
2022-10-18T11:13:02.486Z,100707.06
2022-10-18T11:15:42.862Z,100705.34
2022-10-18T11:18:19.011Z,100701.16
2022-10-18T11:21:08.384Z,100697.72
2022-10-18T11:23:40.762Z,100696.91
2022-10-18T11:26:13.751Z,100698.59
2022-10-18T11:29:05.450Z,100693.38
2022-10-18T11:31:44.303Z,100692.53
2022-10-18T11:34:36.203Z,100695.28
2022-10-18T11:37:40.887Z,100698.00
2022-10-18T11:40:27.357Z,100697.22
2022-10-18T11:43:03.624Z,100697.41
2022-10-18T11:46:05.987Z,100705.34
2022-10-18T11:48:44.881Z,100695.63
2022-10-18T11:51:26.290Z,100699.25
2022-10-18T11:54:18.286Z,100687.97
2022-10-18T11:56:50.504Z,100688.03
2022-10-18T11:59:40.743Z,100680.34
2022-10-18T12:02:38.794Z,100678.81
2022-10-18T12:05:24.059Z,100676.28
2022-10-18T12:08:17.783Z,100670.41
2022-10-18T12:11:04.513Z,100666.13
2022-10-18T12:14:07.662Z,100662.81
2022-10-18T12:16:50.370Z,100647.88
2022-10-18T12:19:26.845Z,100648.88
2022-10-18T12:21:57.362Z,100638.56
2022-10-18T12:24:29.202Z,100638.63
2022-10-18T12:27:00.114Z,100640.34
2022-10-18T12:29:40.764Z,100639.59
2022-10-18T12:32:15.190Z,100638.81
2022-10-18T12:34:49.633Z,100637.09
2022-10-18T12:37:44.522Z,100638.03
2022-10-18T12:40:20.290Z,100638.03
2022-10-18T12:42:49.862Z,100637.19
2022-10-18T12:45:28.444Z,100642.47
2022-10-18T12:48:00.147Z,100644.28
2022-10-18T12:50:31.350Z,100627.63
2022-10-18T12:53:20.040Z,100627.66
2022-10-18T12:55:54.449Z,100626.03
2022-10-18T12:58:22.862Z,100622.50
2022-10-18T13:00:49.878Z,100618.22
2022-10-18T13:03:17.404Z,100615.63
2022-10-18T13:05:56.029Z,100613.94
2022-10-18T13:08:30.459Z,100607.81
2022-10-18T13:11:12.292Z,100605.19
2022-10-18T13:16:33.929Z,100607.81
2022-10-18T13:19:11.624Z,100607.00
2022-10-18T13:21:47.483Z,100605.31
2022-10-18T13:24:32.542Z,100607.06
2022-10-18T13:27:35.519Z,100603.59
2022-10-18T13:30:41.286Z,100604.63
2022-10-18T13:33:08.663Z,100604.66
2022-10-18T13:35:42.923Z,100597.72
2022-10-18T13:38:31.125Z,100596.91
2022-10-18T13:41:53.722Z,100583.88
2022-10-18T13:44:37.453Z,100594.38
2022-10-18T13:47:04.453Z,100599.69
2022-10-18T13:49:40.431Z,100589.25
2022-10-18T13:52:25.867Z,100600.66
2022-10-18T13:55:30.225Z,100604.16
2022-10-18T13:58:34.647Z,100600.72
2022-10-18T14:01:53.339Z,100601.66
2022-10-18T14:04:44.673Z,100597.31
2022-10-18T14:07:12.091Z,100603.47
2022-10-18T14:09:57.600Z,100586.09
2022-10-18T14:12:44.014Z,100591.34
2022-10-18T14:15:17.943Z,100580.00
2022-10-18T14:17:48.171Z,100580.84
2022-10-18T14:20:27.260Z,100574.78
2022-10-18T14:23:21.778Z,100580.09
2022-10-18T14:25:48.620Z,100572.22
2022-10-18T14:28:36.340Z,100570.59
2022-10-18T14:31:14.988Z,100558.47
2022-10-18T14:33:57.875Z,100556.84
2022-10-18T14:36:46.410Z,100552.53
2022-10-18T14:39:27.755Z,100545.59
2022-10-18T14:41:56.124Z,100554.41
2022-10-18T14:44:31.303Z,100550.13
2022-10-18T14:47:14.299Z,100550.22
2022-10-18T14:49:46.287Z,100552.84
2022-10-18T14:52:16.918Z,100545.88
2022-10-18T14:54:44.513Z,100547.63
2022-10-18T14:57:22.982Z,100542.47
2022-10-18T14:59:54.003Z,100545.16
2022-10-18T15:02:29.835Z,100542.63
2022-10-18T15:05:17.155Z,100537.47
2022-10-18T15:07:44.707Z,100537.56
2022-10-18T15:10:17.679Z,100525.38
2022-10-18T15:13:08.346Z,100519.34
2022-10-18T15:15:33.744Z,100515.91
2022-10-18T15:18:01.175Z,100508.16
2022-10-18T15:20:33.946Z,100507.34
2022-10-18T15:23:28.251Z,100503.91
2022-10-18T15:26:05.504Z,100496.16
2022-10-18T15:28:50.460Z,100493.56
2022-10-18T15:31:30.624Z,100496.25
2022-10-18T15:34:23.423Z,100486.72
2022-10-18T15:36:52.422Z,100492.00
2022-10-18T15:39:25.552Z,100486.81
2022-10-18T15:41:56.324Z,100473.81
2022-10-18T15:44:25.256Z,100464.31
2022-10-18T15:46:55.571Z,100470.44
2022-10-18T15:49:25.468Z,100483.56
2022-10-18T15:52:36.696Z,100474.03
2022-10-18T15:55:23.654Z,100473.97
2022-10-18T15:57:50.851Z,100484.50
2022-10-18T16:00:20.718Z,100488.09
2022-10-18T16:02:47.785Z,100484.69
2022-10-18T16:05:18.408Z,100498.66
2022-10-18T16:07:45.362Z,100497.84
2022-10-18T16:10:13.794Z,100496.13
2022-10-18T16:12:41.332Z,100499.66
2022-10-18T16:15:08.709Z,100497.88
2022-10-18T16:17:35.813Z,100504.06
2022-10-18T16:20:04.053Z,100502.25
2022-10-18T16:22:34.677Z,100505.78
2022-10-18T16:25:04.380Z,100509.34
2022-10-18T16:27:31.485Z,100505.88
2022-10-18T16:29:58.658Z,100511.06
2022-10-18T16:32:25.657Z,100510.22
2022-10-18T16:34:52.628Z,100499.75
2022-10-18T16:37:19.635Z,100505.00
2022-10-18T16:39:46.617Z,100508.47
2022-10-18T16:42:13.547Z,100515.44
2022-10-18T16:44:40.535Z,100525.03
2022-10-18T16:47:07.455Z,100523.25
2022-10-18T16:49:34.853Z,100529.25
2022-10-18T16:52:02.041Z,100524.06
2022-10-18T16:54:29.202Z,100533.63
2022-10-18T16:56:58.425Z,100531.94
2022-10-18T16:59:30.008Z,100537.22
2022-10-18T17:01:57.443Z,100538.09
2022-10-18T17:04:24.645Z,100538.97
2022-10-18T17:06:52.875Z,100528.56
2022-10-18T17:09:20.004Z,100539.06
2022-10-18T17:11:46.933Z,100540.88
2022-10-18T17:14:13.855Z,100535.72
2022-10-18T17:16:41.071Z,100535.72
2022-10-18T17:19:11.553Z,100529.63
2022-10-18T17:21:38.785Z,100539.28
2022-10-18T17:24:06.563Z,100538.44
2022-10-18T17:26:34.431Z,100536.72
2022-10-18T17:29:04.630Z,100536.75
2022-10-18T17:31:32.760Z,100533.31
2022-10-18T17:34:02.156Z,100532.44
2022-10-18T17:36:30.776Z,100527.28
2022-10-18T17:38:58.207Z,100538.59
2022-10-18T17:41:25.328Z,100530.78
2022-10-18T17:43:52.232Z,100541.19
2022-10-18T17:46:19.725Z,100537.72
2022-10-18T17:48:46.848Z,100543.84
2022-10-18T17:51:16.594Z,100533.44
2022-10-18T17:53:44.362Z,100530.81
2022-10-18T17:56:12.183Z,100531.72
2022-10-18T17:58:39.461Z,100536.94
2022-10-18T18:01:10.493Z,100530.06
2022-10-18T18:03:37.844Z,100530.94
2022-10-18T18:06:21.726Z,100522.28
2022-10-18T18:08:49.395Z,100524.91
2022-10-18T18:11:17.072Z,100525.78
2022-10-18T18:13:44.302Z,100520.56
2022-10-18T18:16:16.256Z,100518.78
2022-10-18T18:18:43.279Z,100523.09
2022-10-18T18:21:10.588Z,100521.34
2022-10-18T18:23:37.558Z,100517.84
2022-10-18T18:26:04.753Z,100518.72
2022-10-18T18:28:31.894Z,100516.06
2022-10-18T18:30:59.043Z,100514.31
2022-10-18T18:33:26.322Z,100507.31
2022-10-18T18:35:59.527Z,100509.03
2022-10-18T18:38:26.751Z,100508.97
2022-10-18T18:41:13.651Z,100507.25
2022-10-18T18:43:43.482Z,100502.88
2022-10-18T18:46:11.109Z,100502.88
2022-10-18T18:48:38.256Z,100505.47
2022-10-18T18:51:06.632Z,100504.56
2022-10-18T18:53:33.803Z,100498.44
2022-10-18T18:56:02.571Z,100492.38
2022-10-18T18:58:29.632Z,100490.63
2022-10-18T19:00:56.729Z,100489.75
2022-10-18T19:03:23.819Z,100483.63
2022-10-18T19:05:50.983Z,100481.00
2022-10-18T19:08:18.070Z,100480.13
2022-10-18T19:10:49.246Z,100474.00
2022-10-18T19:13:16.489Z,100475.75
2022-10-18T19:15:43.619Z,100480.06
2022-10-18T19:18:10.683Z,100482.63
2022-10-18T19:20:37.784Z,100483.44
2022-10-18T19:23:04.903Z,100479.09
2022-10-18T19:25:32.066Z,100472.09
2022-10-18T19:27:59.183Z,100477.28
2022-10-18T19:30:26.347Z,100471.19
2022-10-18T19:33:01.128Z,100477.28
2022-10-18T19:35:30.662Z,100477.28
2022-10-18T19:37:57.862Z,100470.31
2022-10-18T19:40:24.982Z,100474.63
2022-10-18T19:42:51.999Z,100478.09
2022-10-18T19:45:19.231Z,100483.31
2022-10-18T19:47:46.685Z,100470.28
2022-10-18T19:50:14.087Z,100474.56
2022-10-18T19:52:41.522Z,100464.97
2022-10-18T19:55:09.365Z,100476.31
2022-10-18T19:57:36.564Z,100476.25
2022-10-18T20:00:08.228Z,100468.41
2022-10-18T20:02:41.004Z,100474.50
2022-10-18T20:05:08.383Z,100471.91
2022-10-18T20:07:35.605Z,100475.41
2022-10-18T20:10:03.782Z,100474.47
2022-10-18T20:12:31.214Z,100474.47
2022-10-18T20:14:58.665Z,100477.91
2022-10-18T20:17:25.848Z,100474.44
2022-10-18T20:19:53.185Z,100463.16
2022-10-18T20:22:20.384Z,100469.22
2022-10-18T20:24:47.502Z,100455.31
2022-10-18T20:27:14.622Z,100453.59
2022-10-18T20:29:41.952Z,100448.34
2022-10-18T20:32:09.116Z,100448.34
2022-10-18T20:34:36.006Z,100449.22
2022-10-18T20:37:03.062Z,100452.72
2022-10-18T20:39:30.029Z,100444.88
2022-10-18T20:41:57.068Z,100442.31
2022-10-18T20:44:26.299Z,100442.34
2022-10-18T20:46:53.504Z,100441.50
2022-10-18T20:49:20.388Z,100452.84
2022-10-18T20:51:47.683Z,100449.38
2022-10-18T20:54:14.746Z,100446.81
2022-10-18T20:56:42.026Z,100446.78
2022-10-18T20:59:10.263Z,100440.66
2022-10-18T21:01:38.784Z,100444.13
2022-10-18T21:04:07.771Z,100445.84
2022-10-18T21:06:37.326Z,100441.44
2022-10-18T21:09:06.696Z,100437.06
2022-10-18T21:11:38.827Z,100437.91
2022-10-18T21:14:06.868Z,100429.19
2022-10-18T21:16:35.628Z,100431.81
2022-10-18T21:19:26.703Z,100425.66
2022-10-18T21:21:55.970Z,100435.22
2022-10-18T21:24:24.903Z,100428.28
2022-10-18T21:26:52.128Z,100410.84
2022-10-18T21:29:22.346Z,100423.84
2022-10-18T21:31:50.150Z,100419.41
2022-10-18T21:34:17.622Z,100418.63
2022-10-18T21:36:46.284Z,100408.22
2022-10-18T21:39:18.804Z,100418.72
2022-10-18T21:41:46.502Z,100404.84
2022-10-18T21:44:14.252Z,100402.28
2022-10-18T21:46:43.264Z,100396.19
2022-10-18T21:49:11.286Z,100396.19
2022-10-18T21:51:38.669Z,100393.63
2022-10-18T21:54:08.262Z,100390.97
2022-10-18T21:56:35.761Z,100381.38
2022-10-18T21:59:03.881Z,100382.25
2022-10-18T22:01:38.031Z,100367.50
2022-10-18T22:04:19.308Z,100375.31
2022-10-18T22:06:46.828Z,100384.06
2022-10-18T22:09:13.704Z,100377.09
2022-10-18T22:11:43.572Z,100365.00
2022-10-18T22:14:10.924Z,100370.22
2022-10-18T22:16:38.005Z,100372.00
2022-10-18T22:19:05.974Z,100372.03
2022-10-18T22:21:33.383Z,100357.28
2022-10-18T22:24:00.884Z,100372.94
2022-10-18T22:26:30.987Z,100359.03
2022-10-18T22:29:10.363Z,100367.72
2022-10-18T22:31:39.317Z,100365.94
2022-10-18T22:34:08.806Z,100374.66
2022-10-18T22:36:35.855Z,100365.94
2022-10-18T22:39:05.567Z,100362.38
2022-10-18T22:41:33.212Z,100364.03
2022-10-18T22:44:03.467Z,100359.69
2022-10-18T22:46:31.414Z,100357.97
2022-10-18T22:48:58.351Z,100357.16
2022-10-18T22:51:25.352Z,100362.53
2022-10-18T22:53:52.409Z,100374.75
2022-10-18T22:56:21.528Z,100370.41
2022-10-18T22:58:48.987Z,100378.31
2022-10-18T23:01:18.794Z,100368.72
2022-10-18T23:03:45.806Z,100379.25
2022-10-18T23:06:27.177Z,100381.06
2022-10-18T23:08:55.373Z,100377.59
2022-10-18T23:11:23.251Z,100376.69
2022-10-18T23:13:50.806Z,100387.09
2022-10-18T23:16:18.025Z,100372.34
2022-10-18T23:18:49.591Z,100381.94
2022-10-18T23:21:16.608Z,100376.75
2022-10-18T23:23:43.862Z,100369.00
2022-10-18T23:26:14.127Z,100376.84
2022-10-18T23:28:43.104Z,100372.53
2022-10-18T23:31:30.597Z,100378.56
2022-10-18T23:33:59.392Z,100377.69
2022-10-18T23:36:27.142Z,100374.16
2022-10-18T23:38:54.543Z,100379.38
2022-10-18T23:41:22.524Z,100374.16
2022-10-18T23:43:49.755Z,100375.94
2022-10-18T23:46:17.927Z,100369.88
2022-10-18T23:48:45.185Z,100368.19
2022-10-18T23:51:12.331Z,100360.41
2022-10-18T23:53:39.773Z,100363.94
2022-10-18T23:56:09.666Z,100359.63
2022-10-18T23:58:37.815Z,100363.16
